• Join FlightAware (Why Join?)
  • Login
  • US Flag GB Flag 
23:40 EDT


 

Airport Tracker/Info


-or-


 

Live Flight TrackerFlight Track Log ✈ AFL150 ✈ 03-Oct-2013 ✈ UUEE / SVO - MUHA / HAV

Flight Track Log - Related Links

Times and Time Zones

All times are in EDT time to prevent confusion due to time zone crossing. See the AFL150 flight status page for this flight to view local times or setup timezone preferences in your user account.

Time Position Orientation Groundspeed Altitude Reporting Facility
EDT Latitude Longitude Course Direction KTS MPH feet Rate Location/Type
10:21 55.9640 37.3660 254° West 177 204 1,200  Level FlightAware
10:21 55.9600 37.3370 256° West 177 204 2,000 1,680 Climbing FlightAware
10:21 55.9540 37.2940 256° West 191 220 2,600 960 Climbing FlightAware
10:22 55.9600 37.2450 282° West 216 249 3,000 960 Climbing FlightAware
10:22 55.9690 37.2100 295° West 242 278 3,400 1,800 Climbing FlightAware
10:23 55.9790 37.1730 296° West 251 289 4,200 2,040 Climbing FlightAware
10:23 55.9860 37.1440 293° West 265 305 4,600 1,860 Climbing FlightAware
10:23 55.9960 37.1030 294° West 273 314 5,300 2,520 Climbing FlightAware
10:23 56.0060 37.0650 295° West 270 311 6,300 2,820 Climbing FlightAware
10:24 56.0170 37.0220 295° West 271 312 7,200 2,400 Climbing FlightAware
10:24 56.0270 36.9800 293° West 278 320 7,900 2,400 Climbing FlightAware
10:24 56.0380 36.9380 295° West 280 322 8,800 2,460 Climbing FlightAware
10:25 56.0510 36.8840 293° West 286 329 9,800 2,100 Climbing FlightAware
10:25 56.0700 36.8080 294° West 300 345 10,900 1,620 Climbing FlightAware
10:26 56.0910 36.7270 295° West 321 369 11,700 1,440 Climbing FlightAware
10:27 56.1130 36.6370 294° West 344 396 12,600 1,500 Climbing FlightAware
10:27 56.1360 36.5430 294° West 364 419 13,500 1,620 Climbing FlightAware
10:28 56.1600 36.4440 294° West 380 437 14,500 1,800 Climbing FlightAware
10:28 56.1850 36.3420 294° West 386 444 15,700 2,040 Climbing FlightAware
10:29 56.2100 36.2390 294° West 391 450 16,900 1,860 Climbing FlightAware
10:30 56.2360 36.1330 294° West 401 461 17,900 1,800 Climbing FlightAware
10:30 56.2610 36.0290 293° West 407 468 19,000 1,620 Climbing FlightAware
10:31 56.2890 35.9140 294° West 419 482 19,800 1,440 Climbing FlightAware
10:31 56.3160 35.8010 293° West 426 490 20,700 1,560 Climbing FlightAware
10:32 56.3430 35.6860 293° West 432 497 21,700 1,500 Climbing FlightAware
10:32 56.3710 35.5690 293° West 440 506 22,500 1,500 Climbing FlightAware
10:33 56.3990 35.4520 293° West 443 510 23,400 1,440 Climbing FlightAware
10:33 56.4130 35.4040 298° West 441 507 23,700 1,200 Climbing FlightAware
10:34 56.4330 35.3620 311° West 438 504 24,000 1,200 Climbing FlightAware
10:34 56.4630 35.3220 324° Northwest 434 499 24,400 1,320 Climbing FlightAware
10:34 56.5020 35.2930 338° Northwest 430 495 24,900 1,200 Climbing FlightAware
10:35 56.5680 35.2750 351° North 434 499 25,500 960 Climbing FlightAware
10:35 56.6420 35.2550 352° North 439 505 26,100 1,200 Climbing FlightAware
10:36 56.7120 35.2290 348° North 445 512 26,900 1,320 Climbing FlightAware
10:36 56.7390 35.2040 333° Northwest 452 520 27,200 960 Climbing FlightAware
10:37 56.7970 35.1240 323° Northwest 459 528 27,700 840 Climbing FlightAware
10:37 56.8580 35.0420 324° Northwest 464 534 28,200 900 Climbing FlightAware
10:38 56.9170 34.9610 323° Northwest 467 537 28,800 1,080 Climbing FlightAware
10:39 56.9770 34.8780 323° Northwest 467 537 29,500 1,080 Climbing FlightAware
10:39 57.0390 34.7930 323° Northwest 467 537 30,100 1,020 Climbing FlightAware
10:40 57.0990 34.7090 323° Northwest 466 536 30,700 1,080 Climbing FlightAware
10:40 57.1560 34.6290 323° Northwest 464 534 31,400 1,080 Climbing FlightAware
10:41 57.2180 34.5430 323° Northwest 463 533 32,000 1,020 Climbing FlightAware
10:41 57.2780 34.4570 322° Northwest 460 529 32,600 1,020 Climbing FlightAware
10:42 57.3370 34.3750 323° Northwest 460 529 33,200 1,020 Climbing FlightAware
10:43 57.3940 34.2940 323° Northwest 456 525 33,800 660 Climbing FlightAware
10:43 57.4540 34.2070 322° Northwest 457 526 34,000 120 Climbing FlightAware
10:44 57.5120 34.1250 323° Northwest 457 526 34,000  Level FlightAware
10:44 57.5710 34.0400 322° Northwest 458 527 34,000  Level FlightAware
10:45 57.6300 33.9560 323° Northwest 458 527 34,000  Level FlightAware
10:46 57.6870 33.8740 322° Northwest 455 524 34,000  Level FlightAware
10:46 57.7450 33.7890 322° Northwest 453 521 34,000  Level FlightAware
10:47 57.8020 33.7070 323° Northwest 450 518 34,000  Level FlightAware
10:47 57.8590 33.6180 320° Northwest 450 518 34,000  Level FlightAware
10:48 57.9220 33.5160 319° Northwest 449 517 34,000  Level FlightAware
10:49 57.9720 33.4360 320° Northwest 448 516 34,000  Level FlightAware
10:49 58.0400 33.3270 320° Northwest 448 516 34,000  Level FlightAware
10:50 58.0970 33.2350 320° Northwest 448 516 34,000  Level FlightAware
10:51 58.1500 33.1470 319° Northwest 448 516 34,000  Level FlightAware
10:51 58.2450 32.9930 320° Northwest 450 518 34,000  Level FlightAware
10:52 58.2980 32.9070 320° Northwest 450 518 34,000  Level FlightAware
10:53 58.3460 32.8270 319° Northwest 450 518 34,000  Level FlightAware
10:53 58.3940 32.7480 319° Northwest 450 518 34,000  Level FlightAware
10:54 58.4400 32.6700 318° Northwest 450 518 34,000  Level FlightAware
10:55 58.5560 32.4790 319° Northwest 452 520 34,000  Level FlightAware
10:55 58.6060 32.3960 319° Northwest 452 520 34,000  Level FlightAware
10:56 58.6600 32.3050 319° Northwest 452 520 34,000  Level FlightAware
10:56 58.7220 32.2010 319° Northwest 452 520 34,000  Level FlightAware
10:57 58.7770 32.1060 318° Northwest 452 520 34,000  Level FlightAware
10:58 58.8180 32.0360 319° Northwest 452 520 34,000  Level FlightAware
10:58 58.8770 31.9350 319° Northwest 454 522 34,000  Level FlightAware
10:59 58.9310 31.8430 319° Northwest 454 522 34,000  Level FlightAware
10:59 58.9890 31.7430 318° Northwest 453 521 34,000  Level FlightAware
11:00 59.0230 31.6720 313° West 462 532 34,000  Level FlightAware
11:00 59.0480 31.5720 296° West 471 542 34,000  Level FlightAware
11:01 59.0760 31.4380 292° West 470 541 34,000  Level FlightAware
11:01 59.1050 31.3010 292° West 470 541 34,000  Level FlightAware
11:02 59.1340 31.1650 293° West 469 540 34,000  Level FlightAware
11:02 59.1620 31.0280 292° West 468 539 34,000  Level FlightAware
11:03 59.1950 30.8710 292° West 467 537 34,000  Level FlightAware
11:04 59.2190 30.7560 292° West 467 537 34,000  Level FlightAware
11:04 59.2510 30.6040 292° West 467 537 34,000  Level FlightAware
11:05 59.2760 30.4830 292° West 465 535 34,000  Level FlightAware
11:05 59.3030 30.3510 292° West 465 535 34,000  Level FlightAware
11:06 59.3280 30.2260 291° West 463 533 34,000  Level FlightAware
11:07 59.3590 30.0760 292° West 463 533 34,000  Level FlightAware
11:07 59.3860 29.9420 292° West 464 534 34,000  Level FlightAware
11:08 59.4130 29.8070 292° West 464 534 34,000  Level FlightAware
11:08 59.4410 29.6640 291° West 464 534 34,000  Level FlightAware
11:09 59.4700 29.5140 291° West 464 534 34,000  Level FlightAware
11:10 59.5010 29.3590 292° West 462 532 34,000  Level FlightAware
11:10 59.5240 29.2390 291° West 462 532 34,000  Level FlightAware
11:11 59.5540 29.0850 291° West 460 529 34,000  Level FlightAware
11:12 59.5800 28.9440 290° West 460 529 34,000  Level FlightAware
11:12 59.6110 28.7810 291° West 460 529 34,000  Level FlightAware
11:13 59.6350 28.6230 287° West 461 531 34,000  Level FlightAware
11:13 59.6520 28.5070 286° West 460 529 34,000  Level FlightAware
11:14 59.6770 28.3370 286° West 459 528 34,000  Level FlightAware
11:14 59.6930 28.2240 286° West 460 529 34,000  Level FlightAware
11:15 59.7140 28.0750 286° West 461 531 34,000  Level FlightAware
11:16 59.7340 27.9300 285° West 460 529 34,000  Level FlightAware
11:16 59.7530 27.7940 286° West 461 531 34,000  Level FlightAware
11:17 59.7730 27.6520 286° West 460 529 34,000  Level FlightAware
11:17 59.7960 27.4860 285° West 459 528 34,000  Level FlightAware
11:18 59.8150 27.3460 285° West 457 526 34,000  Level FlightAware
11:19 59.8310 27.2260 285° West 457 526 34,000  Level FlightAware
11:19 59.8500 27.0820 285° West 457 526 34,000  Level FlightAware
11:20 59.8750 26.8960 285° West 457 526 34,000  Level FlightAware
11:20 59.8970 26.7280 285° West 456 525 34,000  Level FlightAware
11:21 59.9140 26.5980 285° West 456 525 34,000  Level FlightAware
11:22 59.9330 26.4470 284° West 454 522 34,000  Level FlightAware
11:22 59.9550 26.3210 289° West 451 519 34,000  Level FlightAware
11:23 59.9820 26.2220 299° West 445 512 34,000  Level FlightAware
11:23 60.0220 26.0940 302° West 446 513 34,000  Level FlightAware
11:24 60.0590 25.9690 301° West 445 512 34,000  Level FlightAware
11:24 60.0960 25.8460 301° West 447 514 34,000  Level FlightAware
11:25 60.1340 25.7230 302° West 447 514 34,000  Level FlightAware
11:26 60.1730 25.5930 301° West 446 513 34,000  Level FlightAware
11:26 60.2080 25.4760 301° West 447 514 34,000  Level FlightAware
11:27 60.2420 25.3590 300° West 447 514 34,000  Level FlightAware
11:27 60.2820 25.2230 301° West 447 514 34,000  Level FlightAware
11:28 60.3210 25.0930 301° West 448 516 34,000  Level FlightAware
11:28 60.3520 24.9850 300° West 447 514 34,000  Level FlightAware
11:29 60.3920 24.8490 301° West 446 513 34,000  Level FlightAware
11:30 60.4230 24.7400 300° West 445 512 34,000  Level FlightAware
11:30 60.4660 24.5910 300° West 446 513 34,000  Level FlightAware
11:31 60.4980 24.4800 300° West 446 513 34,000  Level FlightAware
11:31 60.5340 24.3530 300° West 447 514 34,000  Level FlightAware
11:32 60.5710 24.2210 300° West 448 516 34,000  Level FlightAware
11:33 60.6070 24.0930 300° West 448 516 34,000  Level FlightAware
11:33 60.6400 23.9750 300° West 448 516 34,000  Level FlightAware
11:34 60.6770 23.8450 300° West 447 514 34,000  Level FlightAware
11:34 60.7160 23.7020 299° West 447 514 34,000  Level FlightAware
11:35 60.7510 23.5760 300° West 447 514 34,000  Level FlightAware
11:35 60.7830 23.4570 299° West 447 514 34,000  Level FlightAware
11:36 60.8190 23.3270 300° West 447 514 34,000  Level FlightAware
11:37 60.8550 23.1920 299° West 447 514 34,000  Level FlightAware
11:37 60.8870 23.0710 299° West 447 514 34,000  Level FlightAware
11:38 60.9260 22.9270 299° West 447 514 34,000  Level FlightAware
11:38 60.9580 22.8050 298° West 447 514 34,000  Level FlightAware
11:39 60.9950 22.6680 299° West 447 514 34,000  Level FlightAware
11:40 61.0280 22.5390 298° West 448 516 34,000  Level FlightAware
11:40 61.0580 22.4070 295° West 448 516 34,000  Level FlightAware
11:41 61.0890 22.2750 296° West 449 517 34,000  Level FlightAware
11:41 61.1230 22.1280 296° West 449 517 34,000  Level FlightAware
11:42 61.1520 21.9980 295° West 448 516 34,000  Level FlightAware
11:42 61.1820 21.8670 295° West 448 516 34,000  Level FlightAware
11:43 61.2150 21.7190 295° West 446 513 34,000  Level FlightAware
11:44 61.2440 21.5930 296° West 446 513 34,000  Level FlightAware
11:44 61.2760 21.4490 295° West 445 512 34,000  Level FlightAware
11:45 61.3060 21.3140 295° West 443 510 34,000  Level FlightAware
11:45 61.3340 21.1870 295° West 443 510 34,000  Level FlightAware
11:46 61.3640 21.0480 294° West 442 509 34,000  Level FlightAware
11:47 61.3950 20.9050 294° West 443 510 34,000  Level FlightAware
11:47 61.4240 20.7700 294° West 443 510 34,000  Level FlightAware
11:48 61.4520 20.6430 295° West 442 509 34,000  Level FlightAware
11:48 61.4830 20.4990 294° West 442 509 34,000  Level FlightAware
11:49 61.5090 20.3740 294° West 441 507 34,000  Level FlightAware
11:49 61.5390 20.2310 294° West 442 509 34,000 240 Level FlightAware
11:50 61.5640 20.1120 294° West 445 512 34,300 780 Climbing FlightAware
11:51 61.5980 19.9470 293° West 441 507 35,000 900 Climbing FlightAware
11:51 61.6240 19.8220 294° West 441 507 35,400 660 Climbing FlightAware
11:52 61.6520 19.6870 294° West 441 507 35,800 480 Climbing FlightAware
11:52 61.6790 19.5530 293° West 443 510 36,000 120 Climbing FlightAware
11:53 61.7100 19.4000 293° West 445 512 36,000  Level FlightAware
11:54 61.7370 19.2640 293° West 442 509 36,000  Level FlightAware
11:54 61.7680 19.1070 293° West 441 507 36,000  Level FlightAware
11:55 61.7930 18.9830 293° West 441 507 36,000  Level FlightAware
11:55 61.8210 18.8400 293° West 439 505 36,000  Level FlightAware
11:56 61.8500 18.6940 293° West 439 505 36,000  Level FlightAware
11:57 61.8780 18.5460 292° West 439 505 36,000  Level FlightAware
11:57 61.9050 18.4100 293° West 440 506 36,000  Level FlightAware
11:58 61.9300 18.2780 292° West 441 507 36,000  Level FlightAware
11:58 61.9560 18.1390 292° West 440 506 36,000  Level FlightAware
11:59 61.9850 17.9870 292° West 441 507 36,000  Level FlightAware
12:00 62.0110 17.8450 291° West 441 507 36,000  Level FlightAware
12:00 62.0360 17.7140 292° West 441 507 36,000  Level FlightAware
12:01 62.0640 17.5620 292° West 441 507 36,000  Level FlightAware
12:01 62.0880 17.4310 291° West 442 509 36,000  Level FlightAware
12:02 62.1170 17.2690 291° West 442 509 36,000  Level FlightAware
12:02 62.1440 17.1210 291° West 443 510 36,000  Level FlightAware
12:03 62.1670 16.9910 291° West 441 507 36,000  Level FlightAware
12:04 62.1920 16.8520 291° West 441 507 36,000  Level FlightAware
12:04 62.2190 16.6980 291° West 443 510 36,000  Level FlightAware
12:05 62.2410 16.5750 291° West 444 511 36,000  Level FlightAware
12:05 62.2680 16.4190 290° West 441 507 36,000  Level FlightAware
12:06 62.2930 16.2710 290° West 442 509 36,000  Level FlightAware
12:07 62.3190 16.1230 291° West 441 507 36,000  Level FlightAware
12:07 62.3440 15.9750 290° West 441 507 36,000  Level FlightAware
12:08 62.3660 15.8450 290° West 441 507 36,000  Level FlightAware
12:08 62.3890 15.7050 290° West 442 509 36,000  Level FlightAware
12:09 62.4150 15.5470 290° West 442 509 36,000  Level FlightAware
12:09 62.4400 15.3970 290° West 441 507 36,000  Level FlightAware
12:10 62.4630 15.2560 289° West 440 506 36,000  Level FlightAware
12:11 62.4840 15.1240 289° West 442 509 36,000  Level FlightAware
12:11 62.5080 14.9740 289° West 440 506 36,000  Level FlightAware
12:12 62.5290 14.8420 289° West 438 504 36,000  Level FlightAware
12:12 62.5520 14.7010 290° West 436 502 36,000  Level FlightAware
12:13 62.5790 14.5280 289° West 436 502 36,000  Level FlightAware
12:14 62.6000 14.3880 288° West 436 502 36,000  Level FlightAware
12:14 62.6220 14.2480 289° West 436 502 36,000  Level FlightAware
12:15 62.6440 14.1070 289° West 437 503 36,000  Level FlightAware
12:15 62.6650 13.9660 288° West 439 505 36,000  Level FlightAware
12:16 62.6890 13.8050 288° West 438 504 36,000  Level FlightAware
12:16 62.7100 13.6700 289° West 439 505 36,000  Level FlightAware
12:17 62.7320 13.5190 288° West 438 504 36,000  Level FlightAware
12:18 62.7550 13.3630 288° West 439 505 36,000  Level FlightAware
12:18 62.7740 13.2330 288° West 440 506 36,000  Level FlightAware
12:19 62.7960 13.0800 288° West 443 510 36,000  Level FlightAware
12:19 62.8190 12.9180 287° West 444 511 36,000  Level FlightAware
12:20 62.8380 12.7850 287° West 440 506 36,000  Level FlightAware
12:21 62.8610 12.6220 287° West 439 505 36,000  Level FlightAware
12:21 62.8800 12.4810 287° West 439 505 36,000  Level FlightAware
12:22 62.9000 12.3360 287° West 438 504 36,000  Level FlightAware
12:22 62.9210 12.1820 287° West 438 504 36,000  Level FlightAware
12:23 62.9390 12.0470 286° West 437 503 36,000  Level FlightAware
12:23 62.9620 11.8760 287° West 437 503 36,000  Level FlightAware
12:24 62.9800 11.7410 286° West 437 503 36,000  Level FlightAware
12:25 63.0010 11.5850 287° West 440 506 36,000  Level FlightAware
12:25 63.0200 11.4400 286° West 439 505 36,000  Level FlightAware
12:26 63.0400 11.2870 286° West 438 504 36,000  Level FlightAware
12:26 63.0570 11.1490 285° West 437 503 36,000  Level FlightAware
12:27 63.0770 10.9940 286° West 435 501 36,000  Level FlightAware
12:28 63.0960 10.8420 286° West 434 499 36,000  Level FlightAware
12:28 63.1160 10.6780 285° West 435 501 36,000  Level FlightAware
12:29 63.1330 10.5420 286° West 436 502 36,000  Level FlightAware
12:29 63.1510 10.3950 285° West 436 502 36,000  Level FlightAware
12:30 63.1690 10.2500 285° West 437 503 36,000  Level FlightAware
12:30 63.1870 10.0970 285° West 438 504 36,000  Level FlightAware
12:31 63.2070 9.9300 285° West 439 505 36,000  Level FlightAware
12:32 63.2230 9.7920 284° West 439 505 36,000  Level FlightAware
12:32 63.2410 9.6330 284° West 439 505 36,000  Level FlightAware
12:33 63.2590 9.4760 284° West 440 506 36,000  Level FlightAware
12:33 63.2750 9.3360 284° West 441 507 36,000  Level FlightAware
12:34 63.2940 9.1680 284° West 443 510 36,000  Level FlightAware
12:35 63.3110 9.0150 284° West 443 510 36,000  Level FlightAware
12:35 63.3280 8.8610 284° West 442 509 36,000  Level FlightAware
12:36 63.3450 8.7060 284° West 443 510 36,000  Level FlightAware
12:36 63.3610 8.5530 283° West 441 507 36,000  Level FlightAware
12:37 63.3770 8.4000 283° West 439 505 36,000  Level FlightAware
12:37 63.3940 8.2400 283° West 437 503 36,000  Level FlightAware
12:38 63.4090 8.0980 283° West 435 501 36,000  Level FlightAware
12:39 63.4250 7.9390 283° West 433 498 36,000  Level FlightAware
12:39 63.4410 7.7850 283° West 433 498 36,000  Level FlightAware
12:40 63.4550 7.6430 283° West 433 498 36,000  Level FlightAware
12:40 63.4710 7.4840 283° West 433 498 36,000  Level FlightAware
12:41 63.4840 7.3500 282° West 434 499 36,000  Level FlightAware
12:42 63.5000 7.1820 282° West 434 499 36,000  Level FlightAware
12:42 63.5150 7.0260 282° West 434 499 36,000  Level FlightAware
12:43 63.5290 6.8740 282° West 431 496 36,000  Level FlightAware
12:43 63.5430 6.7270 282° West 430 495 36,000  Level FlightAware
12:44 63.5580 6.5650 282° West 428 493 36,000  Level FlightAware
12:44 63.5700 6.4330 282° West 427 491 36,000  Level FlightAware
12:45 63.5850 6.2660 281° West 428 493 36,000  Level FlightAware
12:46 63.5980 6.1240 282° West 428 493 36,000  Level FlightAware
12:46 63.6120 5.9610 281° West 427 491 36,000  Level FlightAware
12:47 63.6260 5.8010 281° West 427 491 36,000  Level FlightAware
12:47 63.6370 5.6630 280° West 427 491 36,000  Level FlightAware
12:48 63.6500 5.5100 281° West 429 494 36,000  Level FlightAware
12:49 63.6650 5.3370 281° West 430 495 36,000  Level FlightAware
12:49 63.6760 5.1950 280° West 430 495 36,000  Level FlightAware
12:50 63.6880 5.0430 280° West 428 493 36,000  Level FlightAware
12:50 63.7000 4.9000 281° West 427 491 36,000  Level FlightAware
12:51 63.7120 4.7510 280° West 426 490 36,000  Level FlightAware
12:51 63.7250 4.5780 280° West 425 489 36,000  Level FlightAware
12:52 63.7360 4.4290 280° West 424 488 36,000  Level FlightAware
12:53 63.7480 4.2790 280° West 424 488 36,000  Level FlightAware
12:53 63.7590 4.1290 279° West 426 490 36,000  Level FlightAware
12:54 63.7700 3.9670 279° West 428 493 36,000  Level FlightAware
12:54 63.7800 3.8310 280° West 429 494 36,000  Level FlightAware
12:55 63.7910 3.6790 279° West 431 496 36,000  Level FlightAware
12:56 63.8030 3.5020 279° West 431 496 36,000  Level FlightAware
12:56 63.8130 3.3590 279° West 428 493 36,000  Level FlightAware
12:57 63.8240 3.2020 279° West 428 493 36,000  Level FlightAware
12:57 63.8330 3.0560 278° West 427 491 36,000  Level FlightAware
12:58 63.8430 2.9010 278° West 427 491 36,000  Level FlightAware
12:58 63.8520 2.7570 278° West 427 491 36,000  Level FlightAware
12:59 63.8630 2.5860 278° West 427 491 36,000  Level FlightAware
13:00 63.8740 2.4180 279° West 427 491 36,000  Level FlightAware
13:00 63.8830 2.2690 278° West 428 493 36,000  Level FlightAware
13:01 63.8910 2.1210 277° West 428 493 36,000  Level FlightAware
13:01 63.9000 1.9660 278° West 428 493 36,000  Level FlightAware
13:02 63.9090 1.8150 278° West 427 491 36,000  Level FlightAware
13:03 63.9180 1.6580 277° West 425 489 36,000  Level FlightAware
13:03 63.9270 1.4930 277° West 422 486 36,000  Level FlightAware
13:04 63.9350 1.3510 277° West 421 484 36,000  Level FlightAware
13:04 63.9440 1.1790 277° West 420 483 36,000  Level FlightAware
13:05 63.9510 1.0410 277° West 420 483 36,000  Level FlightAware
13:06 63.9600 0.8430 276° West 420 483 36,000  Level FlightAware
13:06 63.9670 0.7080 277° West 420 483 36,000  Level FlightAware
13:07 63.9710 0.6140 276° West 420 483 36,000  Level FlightAware
13:07 63.9770 0.4790 276° West 420 483 36,000  Level FlightAware
13:08 63.9830 0.3410 276° West 420 483 36,000  Level FlightAware
13:09 63.9900 0.2020 277° West 420 483 36,000  Level FlightAware
13:09 63.9960 0.0670 276° West 420 483 36,000  Level FlightAware
13:10 64.0020 -0.0600 276° West 420 483 36,000  Level FlightAware
13:10 64.0130 -0.3800 275° West 417 480 36,000  Level FlightAware
13:11 64.0170 -0.5200 274° West 417 480 36,000  Level FlightAware
13:11 64.0210 -0.6300 275° West 415 478 36,000  Level FlightAware
13:12 64.0270 -0.8560 274° West 416 479 36,000  Level FlightAware
13:13 64.0310 -0.9970 274° West 417 480 36,000  Level FlightAware
13:13 64.0360 -1.1950 273° West 417 480 36,000  Level FlightAware
13:14 64.0390 -1.3340 273° West 417 480 36,000  Level FlightAware
13:15 64.0420 -1.4760 273° West 417 480 36,000  Level FlightAware
13:15 64.0460 -1.6140 274° West 417 480 36,000  Level FlightAware
13:16 64.0520 -1.8470 273° West 422 486 36,000  Level FlightAware
13:16 64.0550 -1.9990 273° West 423 487 36,000  Level FlightAware
13:17 64.0580 -2.1470 273° West 423 487 36,000  Level FlightAware
13:18 64.0630 -2.3770 273° West 425 489 36,000  Level FlightAware
13:18 64.0650 -2.5220 272° West 425 489 36,000  Level FlightAware
13:19 64.0690 -2.7610 272° West 430 495 36,000  Level FlightAware
13:20 64.0710 -2.9000 272° West 430 495 36,000  Level FlightAware
13:21 64.0730 -3.0430 272° West 430 495 36,000  Level FlightAware
13:21 64.0760 -3.2710 272° West 438 504 36,000  Level FlightAware
13:22 64.0780 -3.4260 272° West 439 505 36,000  Level FlightAware
13:22 64.0790 -3.5900 271° West 440 506 36,000  Level FlightAware
13:23 64.0810 -3.7560 272° West 441 507 36,000  Level FlightAware
13:23 64.0820 -3.9260 271° West 443 510 36,000  Level FlightAware
13:24 64.0830 -4.0750 271° West 445 512 36,000  Level FlightAware
13:25 64.0840 -4.2410 271° West 446 513 36,000  Level FlightAware
13:25 64.0850 -4.4030 271° West 448 516 36,000  Level FlightAware
13:26 64.0860 -4.5820 271° West 449 517 36,000  Level FlightAware
13:26 64.0860 -4.7560 270° West 449 517 36,000  Level FlightAware
13:27 64.0860 -4.9050 270° West 449 517 36,000  Level FlightAware
13:28 64.0860 -5.1680 270° West 446 513 36,000  Level FlightAware
13:28 64.0860 -5.3450 270° West 446 513 36,000  Level FlightAware
13:29 64.0850 -5.5160 269° West 446 513 36,000  Level FlightAware
13:30 64.0850 -5.6680 270° West 447 514 36,000  Level FlightAware
13:30 64.0840 -5.8360 269° West 448 516 36,000  Level FlightAware
13:31 64.0830 -5.9850 269° West 449 517 36,000  Level FlightAware
13:31 64.0820 -6.1670 269° West 450 518 36,000  Level FlightAware
13:32 64.0800 -6.3530 269° West 452 520 36,000  Level FlightAware
13:33 64.0780 -6.5280 269° West 454 522 36,000  Level FlightAware
13:33 64.0770 -6.6830 269° West 456 525 36,000  Level FlightAware
13:34 64.0750 -6.8570 269° West 456 525 36,000  Level FlightAware
13:34 64.0720 -7.0350 268° West 456 525 36,000  Level FlightAware
13:35 64.0700 -7.2060 269° West 457 526 36,000  Level FlightAware
13:36 64.0670 -7.3690 268° West 459 528 36,000  Level FlightAware
13:36 64.0640 -7.5280 268° West 460 529 36,000  Level FlightAware
13:37 64.0600 -7.7150 267° West 460 529 36,000  Level FlightAware
13:37 64.0570 -7.8630 267° West 460 529 36,000  Level FlightAware
13:38 64.0530 -8.0120 267° West 460 529 36,000  Level FlightAware
13:39 64.0500 -8.1610 267° West 460 529 36,000  Level FlightAware
13:39 64.0460 -8.3130 267° West 460 529 36,000  Level FlightAware
13:40 64.0430 -8.4540 267° West 460 529 36,000  Level FlightAware
13:40 64.0400 -8.6020 267° West 460 529 36,000  Level FlightAware
13:41 64.0360 -8.7550 267° West 460 529 36,000  Level FlightAware
13:42 64.0320 -8.9160 267° West 460 529 36,000  Level FlightAware
13:42 64.0290 -9.0680 267° West 460 529 36,000  Level FlightAware
13:43 64.0250 -9.2170 267° West 460 529 36,000  Level FlightAware
13:44 64.0220 -9.3650 267° West 460 529 36,000  Level FlightAware
13:44 64.0180 -9.5180 267° West 460 529 36,000  Level FlightAware
13:45 64.0150 -9.6660 267° West 460 529 36,000  Level FlightAware
13:45 63.9880 -10.1980 264° West 455 524 36,000  Level FlightAware
13:46 63.9770 -10.3680 262° West 455 524 36,000  Level FlightAware
13:47 63.9670 -10.5210 262° West 455 524 36,000  Level FlightAware
13:47 63.9550 -10.6890 261° West 456 525 36,000  Level FlightAware
13:48 63.9450 -10.8480 262° West 457 526 36,000  Level FlightAware
13:48 63.9330 -11.0110 261° West 458 527 36,000  Level FlightAware
13:49 63.9230 -11.1570 261° West 458 527 36,000  Level FlightAware
13:49 63.9110 -11.3250 261° West 458 527 36,000  Level FlightAware
13:50 63.9000 -11.4840 261° West 457 526 36,000  Level FlightAware
13:51 63.8870 -11.6560 260° West 456 525 36,000  Level FlightAware
13:51 63.8740 -11.8250 260° West 455 524 36,000  Level FlightAware
13:52 63.8610 -11.9930 260° West 455 524 36,000  Level FlightAware
13:52 63.8500 -12.1440 261° West 456 525 36,000  Level FlightAware
13:53 63.8360 -12.3110 259° West 456 525 36,000  Level FlightAware
13:53 63.8230 -12.4790 260° West 455 524 36,000  Level FlightAware
13:54 63.8100 -12.6330 259° West 454 522 36,000  Level FlightAware
13:55 63.7970 -12.7980 260° West 453 521 36,000  Level FlightAware
13:55 63.7830 -12.9630 259° West 454 522 36,000  Level FlightAware
13:56 63.7710 -13.1120 260° West 453 521 36,000  Level FlightAware
13:56 63.7550 -13.2890 259° West 452 520 36,000  Level FlightAware
13:57 63.7410 -13.4550 259° West 451 519 36,000  Level FlightAware
13:58 63.7270 -13.6100 259° West 451 519 36,000  Level FlightAware
13:58 63.7130 -13.7700 259° West 452 520 36,000  Level FlightAware
13:59 63.6970 -13.9440 258° West 452 520 36,000  Level FlightAware
13:59 63.6840 -14.0820 258° West 451 519 36,000  Level FlightAware
14:00 63.6670 -14.2630 258° West 450 518 36,000  Level FlightAware
14:00 63.6540 -14.4100 259° West 450 518 36,000  Level FlightAware
14:01 63.6370 -14.5830 258° West 451 519 36,000  Level FlightAware
14:02 63.6230 -14.7280 258° West 451 519 36,000  Level FlightAware
14:02 63.6070 -14.8960 258° West 452 520 36,000  Level FlightAware
14:03 63.5900 -15.0580 257° West 452 520 36,000  Level FlightAware
14:03 63.5740 -15.2230 258° West 453 521 36,000  Level FlightAware
14:04 63.5570 -15.3880 257° West 452 520 36,000  Level FlightAware
14:05 63.5420 -15.5360 257° West 452 520 36,000  Level FlightAware
14:05 63.5260 -15.6910 257° West 453 521 36,000  Level FlightAware
14:06 63.5080 -15.8610 257° West 454 522 36,000  Level FlightAware
14:06 63.4920 -16.0050 256° West 455 524 36,000  Level FlightAware
14:07 63.4730 -16.1810 256° West 456 525 36,000  Level FlightAware
14:07 63.4560 -16.3380 256° West 457 526 36,000  Level FlightAware
14:08 63.4390 -16.4950 256° West 457 526 36,000  Level FlightAware
14:09 63.4210 -16.6560 256° West 455 524 36,000  Level FlightAware
14:09 63.4020 -16.8200 256° West 455 524 36,000  Level FlightAware
14:10 63.3860 -16.9660 256° West 456 525 36,000  Level FlightAware
14:10 63.3690 -17.1110 255° West 456 525 36,000  Level FlightAware
14:11 63.3610 -17.1830 256° West 456 525 36,000  Level FlightAware
14:11 63.3310 -17.4370 255° West 456 525 36,000  Level FlightAware
14:12 63.3100 -17.6080 255° West 454 522 36,000  Level FlightAware
14:13 63.2920 -17.7620 255° West 453 521 36,000  Level FlightAware
14:15 63.2578 -18.1159 258° West  Level Estimated
14:16 63.2385 -18.3104 258° West  Level Estimated
14:17 63.2191 -18.5046 258° West  Level Estimated
14:18 63.1993 -18.6985 257° West  Level Estimated
14:19 63.1793 -18.8921 257° West  Level Estimated
14:20 63.1590 -19.0855 257° West  Level Estimated
14:21 63.1385 -19.2787 257° West  Level Estimated
14:22 63.1176 -19.4715 257° West  Level Estimated
14:22 62.9780 -20.3460 256° West 450 518 36,000  Level FlightAware
14:23 63.0966 -19.6641 256° West  Level Estimated
14:23 62.9670 -20.5180 262° West 449 517 36,000  Level FlightAware
14:24 62.9580 -20.6630 262° West 449 517 36,000  Level FlightAware
14:24 62.9470 -20.8240 262° West 449 517 36,000  Level FlightAware
14:25 62.9360 -20.9870 262° West 449 517 36,000  Level FlightAware
14:25 62.9250 -21.1420 261° West 448 516 36,000  Level FlightAware
14:26 62.9130 -21.3070 261° West 448 516 36,000  Level FlightAware
14:27 62.9020 -21.4570 261° West 449 517 36,000  Level FlightAware
14:27 62.8920 -21.6040 262° West 450 518 36,000  Level FlightAware
14:28 62.8810 -21.7480 261° West 450 518 36,000  Level FlightAware
14:28 62.8670 -21.9290 260° West 452 520 36,000  Level FlightAware
14:29 62.8550 -22.0920 261° West 450 518 36,000  Level FlightAware
14:29 62.8440 -22.2340 260° West 448 516 36,000  Level FlightAware
14:30 62.8310 -22.3900 260° West 447 514 36,000  Level FlightAware
14:31 62.8180 -22.5550 260° West 446 513 36,000  Level FlightAware
14:31 62.8050 -22.7130 260° West 446 513 36,000  Level FlightAware
14:32 62.7930 -22.8650 260° West 447 514 36,000  Level FlightAware
14:32 62.7800 -23.0250 260° West 447 514 36,000  Level FlightAware
14:33 62.7670 -23.1730 259° West 448 516 36,000  Level FlightAware
14:34 62.7530 -23.3310 259° West 448 516 36,000  Level FlightAware
14:34 62.7400 -23.4840 260° West 447 514 36,000  Level FlightAware
14:35 62.7280 -23.6150 259° West 446 513 36,000  Level FlightAware
14:35 62.7130 -23.7880 259° West 445 512 36,000  Level FlightAware
14:36 62.6990 -23.9410 259° West 445 512 36,000  Level FlightAware
14:36 62.6850 -24.0970 259° West 446 513 36,000  Level FlightAware
14:37 62.6710 -24.2460 258° West 446 513 36,000  Level FlightAware
14:38 62.6560 -24.4020 258° West 446 513 36,000  Level FlightAware
14:38 62.6410 -24.5620 259° West 446 513 36,000  Level FlightAware
14:39 62.6260 -24.7160 258° West 445 512 36,000  Level FlightAware
14:39 62.6120 -24.8570 258° West 446 513 36,000  Level FlightAware
14:40 62.5970 -25.0130 258° West 446 513 36,000  Level FlightAware
14:41 62.5810 -25.1730 258° West 447 514 36,000  Level FlightAware
14:41 62.5660 -25.3230 258° West 447 514 36,000  Level FlightAware
14:42 62.5490 -25.4820 257° West 447 514 36,000  Level FlightAware
14:42 62.5310 -25.6590 258° West 448 516 36,000  Level FlightAware
14:43 62.5140 -25.8160 257° West 448 516 36,000  Level FlightAware
14:44 62.4970 -25.9760 257° West 448 516 36,000  Level FlightAware
14:44 62.4820 -26.1140 257° West 448 516 36,000  Level FlightAware
14:45 62.4650 -26.2690 257° West 450 518 36,000  Level FlightAware
14:45 62.4480 -26.4280 257° West 450 518 36,000  Level FlightAware
14:46 62.4320 -26.5680 256° West 451 519 36,000  Level FlightAware
14:47 62.4140 -26.7270 256° West 449 517 36,000  Level FlightAware
14:47 62.3970 -26.8820 257° West 449 517 36,000  Level FlightAware
14:48 62.3810 -27.0220 256° West 448 516 36,000  Level FlightAware
14:48 62.3640 -27.1690 256° West 447 514 36,000  Level FlightAware
14:49 62.3440 -27.3340 255° West 446 513 36,000  Level FlightAware
14:49 62.3260 -27.4910 256° West 446 513 36,000  Level FlightAware
14:50 62.3090 -27.6270 255° West 446 513 36,000  Level FlightAware
14:51 62.2950 -27.7440 256° West 445 512 36,000  Level FlightAware
14:51 62.2730 -27.9220 255° West 445 512 36,000  Level FlightAware
14:52 62.2550 -28.0680 255° West 446 513 36,000  Level FlightAware
14:52 62.2350 -28.2320 255° West 448 516 36,000  Level FlightAware
14:53 62.2170 -28.3760 255° West 449 517 36,000  Level FlightAware
14:54 62.1970 -28.5280 254° West 450 518 36,000  Level FlightAware
14:54 62.1710 -28.7290 255° West 450 518 36,000  Level FlightAware
14:55 62.1500 -28.8950 255° West 447 514 36,000  Level FlightAware
14:56 62.1310 -29.0410 255° West 446 513 36,000  Level FlightAware
14:56 62.1120 -29.1850 254° West 446 513 36,000  Level FlightAware
14:57 62.0920 -29.3350 254° West 447 514 36,000  Level FlightAware
14:58 62.0660 -29.5210 253° West 447 514 36,000  Level FlightAware
14:58 62.0430 -29.6930 254° West 448 516 36,000  Level FlightAware
14:59 62.0240 -29.8310 254° West 447 514 36,000  Level FlightAware
14:59 62.0010 -29.9910 253° West 447 514 36,000  Level FlightAware
15:00 61.9820 -30.1240 253° West 447 514 36,000  Level FlightAware
15:01 61.9630 -30.2520 253° West 447 514 36,000  Level FlightAware
15:01 61.9460 -30.3740 254° West 447 514 36,000  Level FlightAware
15:02 61.9270 -30.5060 253° West 447 514 36,000  Level FlightAware
15:02 61.9080 -30.6350 253° West 447 514 36,000  Level FlightAware
15:03 61.8900 -30.7630 253° West 447 514 36,000  Level FlightAware
15:04 61.8710 -30.8950 253° West 447 514 36,000  Level FlightAware
15:04 61.8520 -31.0270 253° West 447 514 36,000  Level FlightAware
15:05 61.8330 -31.1550 253° West 447 514 36,000  Level FlightAware
15:05 61.8140 -31.2900 253° West 447 514 36,000  Level FlightAware
15:06 61.7950 -31.4180 253° West 447 514 36,000  Level FlightAware
15:07 61.7780 -31.5390 254° West 447 514 36,000  Level FlightAware
15:07 61.7590 -31.6710 253° West 447 514 36,000  Level FlightAware
15:08 61.7400 -31.7990 253° West 447 514 36,000  Level FlightAware
15:08 61.7210 -31.9300 253° West 447 514 36,000  Level FlightAware
15:11 61.6430 -32.2806 245° Southwest  Level Estimated
15:12 61.6046 -32.4510 245° Southwest  Level Estimated
15:13 61.5660 -32.6209 245° Southwest  Level Estimated
15:14 61.5272 -32.7905 244° Southwest  Level Estimated
15:15 61.4881 -32.9596 244° Southwest  Level Estimated
15:16 61.4489 -33.1283 244° Southwest  Level Estimated
15:17 61.4095 -33.2965 244° Southwest  Level Estimated
15:18 61.3698 -33.4644 244° Southwest  Level Estimated
15:19 61.3300 -33.6318 244° Southwest  Level Estimated
15:20 61.2899 -33.7987 244° Southwest  Level Estimated
15:21 61.2496 -33.9653 243° Southwest  Level Estimated
15:22 61.2092 -34.1314 243° Southwest  Level Estimated
15:23 61.1685 -34.2971 243° Southwest  Level Estimated
15:24 61.1276 -34.4624 243° Southwest  Level Estimated
15:25 61.0866 -34.6272 243° Southwest  Level Estimated
15:26 61.0453 -34.7916 243° Southwest  Level Estimated
15:27 61.0038 -34.9556 243° Southwest  Level Estimated
15:28 60.9622 -35.1192 242° Southwest  Level Estimated
15:29 60.9203 -35.2823 242° Southwest  Level Estimated
15:30 60.8782 -35.4450 242° Southwest  Level Estimated
15:31 60.8360 -35.6073 242° Southwest  Level Estimated
15:32 60.7935 -35.7691 242° Southwest  Level Estimated
15:33 60.7509 -35.9305 242° Southwest  Level Estimated
15:34 60.7080 -36.0915 242° Southwest  Level Estimated
15:35 60.6650 -36.2521 241° Southwest  Level Estimated
15:36 60.6218 -36.4122 241° Southwest  Level Estimated
15:37 60.5784 -36.5719 241° Southwest  Level Estimated
15:38 60.5347 -36.7312 241° Southwest  Level Estimated
15:39 60.4909 -36.8900 241° Southwest  Level Estimated
15:40 60.4470 -37.0484 241° Southwest  Level Estimated
15:41 60.4028 -37.2064 241° Southwest  Level Estimated
15:42 60.3584 -37.3639 240° Southwest  Level Estimated
15:43 60.3139 -37.5210 240° Southwest  Level Estimated
15:44 60.2692 -37.6777 240° Southwest  Level Estimated
15:45 60.2243 -37.8340 240° Southwest  Level Estimated
15:46 60.1791 -37.9898 240° Southwest  Level Estimated
15:47 60.1339 -38.1452 240° Southwest  Level Estimated
15:48 60.0884 -38.3002 240° Southwest  Level Estimated
15:49 60.0428 -38.4548 239° Southwest  Level Estimated
15:50 59.9969 -38.6089 239° Southwest  Level Estimated
15:51 59.9510 -38.7626 239° Southwest  Level Estimated
15:52 59.9048 -38.9158 239° Southwest  Level Estimated
15:53 59.8584 -39.0687 239° Southwest  Level Estimated
15:54 59.8119 -39.2211 239° Southwest  Level Estimated
15:55 59.7652 -39.3731 239° Southwest  Level Estimated
15:56 59.7183 -39.5246 239° Southwest  Level Estimated
15:57 59.6712 -39.6758 238° Southwest  Level Estimated
15:58 59.6240 -39.8265 238° Southwest  Level Estimated
15:59 59.5766 -39.9768 238° Southwest  Level Estimated
16:00 59.5290 -40.1266 238° Southwest  Level Estimated
16:01 59.4813 -40.2761 238° Southwest  Level Estimated
16:02 59.4334 -40.4251 238° Southwest  Level Estimated
16:03 59.3853 -40.5737 238° Southwest  Level Estimated
16:04 59.3371 -40.7219 237° Southwest  Level Estimated
16:05 59.2886 -40.8696 237° Southwest  Level Estimated
16:06 59.2400 -41.0170 237° Southwest  Level Estimated
16:07 59.1913 -41.1639 237° Southwest  Level Estimated
16:08 59.1424 -41.3104 237° Southwest  Level Estimated
16:09 59.0933 -41.4564 237° Southwest  Level Estimated
16:10 59.0440 -41.6021 237° Southwest  Level Estimated
16:11 58.9946 -41.7473 237° Southwest  Level Estimated
16:12 58.9451 -41.8922 236° Southwest  Level Estimated
16:13 58.8953 -42.0366 236° Southwest  Level Estimated
16:14 58.8454 -42.1806 236° Southwest  Level Estimated
16:15 58.7954 -42.3241 236° Southwest  Level Estimated
16:16 58.7452 -42.4673 236° Southwest  Level Estimated
16:17 58.6948 -42.6101 236° Southwest  Level Estimated
16:18 58.6443 -42.7524 236° Southwest  Level Estimated
16:19 58.5936 -42.8943 236° Southwest  Level Estimated
16:20 58.5428 -43.0358 235° Southwest  Level Estimated
16:21 58.4918 -43.1769 235° Southwest  Level Estimated
16:22 58.4406 -43.3176 235° Southwest  Level Estimated
16:23 58.3893 -43.4579 235° Southwest  Level Estimated
16:24 58.3378 -43.5978 235° Southwest  Level Estimated
16:25 58.2862 -43.7372 235° Southwest  Level Estimated
16:26 58.2345 -43.8763 235° Southwest  Level Estimated
16:27 58.1826 -44.0150 235° Southwest  Level Estimated
16:28 58.1305 -44.1532 235° Southwest  Level Estimated
16:29 58.0783 -44.2911 234° Southwest  Level Estimated
16:30 58.0259 -44.4285 234° Southwest  Level Estimated
16:31 57.9734 -44.5655 234° Southwest  Level Estimated
16:32 57.9208 -44.7022 234° Southwest  Level Estimated
16:33 57.8680 -44.8384 234° Southwest  Level Estimated
16:34 57.8150 -44.9743 234° Southwest  Level Estimated
16:35 57.7620 -45.1097 234° Southwest  Level Estimated
16:36 57.7087 -45.2447 234° Southwest  Level Estimated
16:37 57.6553 -45.3794 233° Southwest  Level Estimated
16:38 57.6018 -45.5136 233° Southwest  Level Estimated
16:39 57.5482 -45.6475 233° Southwest  Level Estimated
16:40 57.4944 -45.7809 233° Southwest  Level Estimated
16:41 57.4404 -45.9140 233° Southwest  Level Estimated
16:42 57.3863 -46.0467 233° Southwest  Level Estimated
16:43 57.3321 -46.1790 233° Southwest  Level Estimated
16:44 57.2778 -46.3109 233° Southwest  Level Estimated
16:45 57.2233 -46.4424 233° Southwest  Level Estimated
16:46 57.1686 -46.5735 232° Southwest  Level Estimated
16:47 57.1139 -46.7042 232° Southwest  Level Estimated
16:48 57.0589 -46.8345 232° Southwest  Level Estimated
16:49 57.0039 -46.9645 232° Southwest  Level Estimated
16:50 56.9487 -47.0941 232° Southwest  Level Estimated
16:51 56.8934 -47.2233 232° Southwest  Level Estimated
16:52 56.8380 -47.3521 232° Southwest  Level Estimated
16:53 56.7824 -47.4805 232° Southwest  Level Estimated
16:54 56.7267 -47.6085 232° Southwest  Level Estimated
16:55 56.6709 -47.7362 232° Southwest  Level Estimated
16:56 56.6149 -47.8635 231° Southwest  Level Estimated
16:57 56.5588 -47.9904 231° Southwest  Level Estimated
16:58 56.5026 -48.1169 231° Southwest  Level Estimated
16:59 56.4462 -48.2431 231° Southwest  Level Estimated
17:00 56.3897 -48.3689 231° Southwest  Level Estimated
17:01 56.3331 -48.4943 231° Southwest  Level Estimated
17:02 56.2764 -48.6193 231° Southwest  Level Estimated
17:02 54.2167 -54.1500 230° Southwest 460 529 36,000  Level Gander Center
17:03 56.2195 -48.7440 231° Southwest  Level Estimated
17:03 54.1333 -54.3500 235° Southwest 450 518 36,000  Level Gander Center
17:04 56.1626 -48.8683 231° Southwest  Level Estimated
17:04 54.0667 -54.5000 233° Southwest 460 529 36,000  Level Gander Center
17:05 56.1054 -48.9922 230° Southwest  Level Estimated
17:05 53.9667 -54.6833 227° Southwest 460 529 36,000  Level Gander Center
17:06 56.0482 -49.1158 230° Southwest  Level Estimated
17:06 53.9000 -54.8333 233° Southwest 460 529 36,000  Level Gander Center
17:07 55.9909 -49.2390 230° Southwest  Level Estimated
17:07 53.7833 -55.0000 220° Southwest 460 529 36,000  Level Gander Center
17:08 53.7000 -55.1167 220° Southwest 460 529 36,000  Level Gander Center
17:09 53.6167 -55.2667 227° Southwest 460 529 36,000  Level Gander Center
17:10 53.5167 -55.4333 225° Southwest 450 518 36,000  Level Gander Center
17:11 53.4333 -55.5833 227° Southwest 460 529 36,000  Level Gander Center
17:13 53.3210 -55.7712 225° Southwest  Level FlightAware Approximate
17:15 53.0667 -56.1667 223° Southwest 460 529 36,000  Level Gander Center
17:16 52.9833 -56.3167 227° Southwest 460 529 36,000  Level Gander Center
17:17 52.8833 -56.4667 222° Southwest 450 518 36,000  Level Gander Center
17:18 52.7833 -56.6000 219° Southwest 460 529 36,000  Level Gander Center
17:19 52.7000 -56.7500 228° Southwest 460 529 36,000  Level Gander Center
17:20 52.7170 -56.7499 223° Southwest  Level FlightAware Approximate
17:20 52.6000 -56.9000 222° Southwest 460 529 36,000  Level Gander Center
17:21 52.5000 -57.0500 222° Southwest 460 529 36,000  Level Gander Center
17:22 52.4000 -57.2000 222° Southwest 460 529 36,000  Level Gander Center
17:23 52.3333 -57.3333 231° Southwest 460 529 36,000  Level Gander Center
17:24 52.2167 -57.4833 218° Southwest 470 541 36,000  Level Gander Center
17:25 52.1333 -57.6000 221° Southwest 470 541 36,000  Level Gander Center
17:26 52.0167 -57.7833 224° Southwest 470 541 36,000  Level Gander Center
17:27 51.9333 -57.9167 225° Southwest 470 541 36,000  Level Gander Center
17:28 51.8333 -58.0667 223° Southwest 470 541 36,000  Level Gander Center
17:29 51.7333 -58.2000 220° Southwest 470 541 36,000  Level Gander Center
17:30 51.6333 -58.3500 223° Southwest 470 541 36,000  Level Gander Center
17:31 51.5333 -58.4833 220° Southwest 470 541 36,000  Level Gander Center
17:32 51.4500 -58.6000 221° Southwest 470 541 36,000  Level Gander Center
17:33 51.3000 -58.8167 222° Southwest 470 541 36,000  Level Gander Center
17:34 51.2167 -58.9167 217° Southwest 460 529 36,000  Level Moncton Center
17:35 51.1500 -59.0500 231° Southwest 470 541 36,000  Level Gander Center
17:36 51.0500 -59.1500 212° Southwest 460 529 36,000  Level Gander Center
17:37 50.9667 -59.2833 225° Southwest 460 529 36,000  Level Gander Center
17:38 50.8667 -59.4333 223° Southwest 460 529 36,000  Level Gander Center
17:39 50.7833 -59.5667 225° Southwest 460 529 36,000  Level Gander Center
17:40 50.6833 -59.7000 220° Southwest 460 529 36,000  Level Gander Center
17:41 50.5833 -59.8333 220° Southwest 460 529 36,000  Level Gander Center
17:42 50.4833 -59.9667 220° Southwest 460 529 36,000  Level Gander Center
17:43 50.3833 -60.1000 220° Southwest 460 529 36,000  Level Gander Center
17:44 50.2833 -60.2167 217° Southwest 460 529 36,000  Level Gander Center
17:45 50.2000 -60.3500 226° Southwest 450 518 36,000  Level Gander Center
17:46 50.1000 -60.4667 217° Southwest 450 518 36,000  Level Gander Center
17:47 50.0000 -60.6000 221° Southwest 440 506 36,000  Level Gander Center
17:48 49.9000 -60.7333 221° Southwest 450 518 36,000  Level Gander Center
17:49 49.8167 -60.8333 218° Southwest 450 518 36,000  Level Gander Center
17:50 49.7167 -60.9667 221° Southwest 440 506 36,000  Level Gander Center
17:51 49.6167 -61.0833 217° Southwest 440 506 36,000  Level Gander Center
17:52 49.5167 -61.2167 221° Southwest 430 495 36,000  Level Moncton Center
17:53 49.4333 -61.3333 222° Southwest 420 483 36,000  Level Gander Center
17:54 49.3500 -61.4333 218° Southwest 410 472 36,000  Level Gander Center
17:55 49.2667 -61.5333 218° Southwest 400 460 36,000  Level Gander Center
17:56 49.1833 -61.6333 218° Southwest 400 460 36,000  Level Gander Center
17:57 49.1000 -61.7667 226° Southwest 400 460 36,000  Level Gander Center
17:58 49.0167 -61.8667 218° Southwest 400 460 36,000  Level Gander Center
17:59 48.9333 -61.9667 218° Southwest 390 449 36,000  Level Gander Center
18:00 48.8500 -62.0667 218° Southwest 390 449 36,000  Level Gander Center
18:01 48.7667 -62.1667 218° Southwest 410 472 36,000  Level Gander Center
18:02 48.6667 -62.3000 221° Southwest 400 460 36,000  Level Gander Center
18:03 48.6000 -62.4000 225° Southwest 390 449 36,000  Level Gander Center
18:04 48.5000 -62.5000 214° Southwest 400 460 36,000  Level Gander Center
18:05 48.4000 -62.5833 209° Southwest 400 460 36,000  Level Gander Center
18:06 48.3167 -62.7167 227° Southwest 400 460 36,000  Level Gander Center
18:07 48.2333 -62.8167 219° Southwest 400 460 36,000  Level Gander Center
18:08 48.1500 -62.9167 219° Southwest 400 460 36,000  Level Gander Center
18:09 48.0667 -63.0333 223° Southwest 400 460 36,000  Level Gander Center
18:10 47.9667 -63.1500 218° Southwest 400 460 36,000  Level Moncton Center
18:11 47.8667 -63.2500 214° Southwest 400 460 36,000  Level Moncton Center
18:12 47.7833 -63.3500 219° Southwest 400 460 36,000  Level Moncton Center
18:14 47.6000 -63.5500 216° Southwest 400 460 36,000  Level Moncton Center
18:15 47.5167 -63.6500 219° Southwest 410 472 36,000  Level Moncton Center
18:16 47.4167 -63.7833 222° Southwest 410 472 36,000  Level Moncton Center
18:17 47.3333 -63.8833 219° Southwest 410 472 36,000  Level Moncton Center
18:18 47.2500 -63.9833 219° Southwest 410 472 36,000  Level Moncton Center
18:19 47.1667 -64.1000 224° Southwest 400 460 36,000  Level Moncton Center
18:20 47.1000 -64.2167 230° Southwest 400 460 36,000  Level Moncton Center
18:21 47.0167 -64.3500 228° Southwest 400 460 36,000  Level Moncton Center
18:22 46.9500 -64.4500 226° Southwest 400 460 36,000  Level Moncton Center
18:23 46.8667 -64.5667 224° Southwest 400 460 36,000  Level Moncton Center
18:24 46.7833 -64.6833 224° Southwest 400 460 36,000  Level Moncton Center
18:26 46.6823 -64.8389 227° Southwest  Level FlightAware Approximate
18:31 46.2333 -65.5000 226° Southwest 420 483 36,000  Level Gander Center
18:33 46.2515 -65.4922 226° Southwest  Level FlightAware Approximate
18:34 46.1897 -65.5847 226° Southwest  Level FlightAware Approximate
18:35 46.1278 -65.6770 226° Southwest  Level FlightAware Approximate
18:36 46.0658 -65.7691 226° Southwest  Level FlightAware Approximate
18:36 45.7950 -66.1690 226° Southwest 428 493 36,000  Level FlightAware
18:36 45.7858 -66.1817 224° Southwest 429 494 36,000  Level FlightAware ADS-B (CYQI)
18:37 45.7388 -66.2484 225° Southwest 429 494 36,000  Level FlightAware ADS-B (CYQI)
18:37 45.6963 -66.3089 225° Southwest 429 494 36,000  Level FlightAware ADS-B (CYQI)
18:38 45.6378 -66.3916 225° Southwest 429 494 36,000  Level FlightAware ADS-B (CYQI)
18:39 45.5809 -66.4719 225° Southwest 431 496 36,000  Level FlightAware ADS-B (CYQI)
18:39 45.5420 -66.5270 225° Southwest 429 494 36,000  Level FlightAware
18:39 45.5239 -66.5520 224° Southwest 431 496 36,000  Level FlightAware ADS-B (CYQI)
18:40 45.4648 -66.6351 225° Southwest 431 496 36,000  Level FlightAware ADS-B (CYQI)
18:40 45.4202 -66.6973 224° Southwest 431 496 36,000  Level FlightAware ADS-B (CYQI)
18:41 45.3511 -66.7936 224° Southwest 431 496 36,000  Level FlightAware ADS-B (CYQI)
18:42 45.2930 -66.8740 224° Southwest 429 494 36,000  Level FlightAware
18:43 45.2450 -66.9410 225° Southwest 429 494 36,000  Level FlightAware
18:43 45.1940 -67.0120 224° Southwest 427 491 36,000  Level FlightAware
18:44 45.1450 -67.0790 224° Southwest 427 491 36,000  Level FlightAware
18:44 45.0950 -67.1470 224° Southwest 427 491 36,000  Level FlightAware
18:45 45.1709 -67.0432 44° Northeast 426 490 36,000  Level FlightAware ADS-B (CYSG)
18:45 45.0306 -67.2358 224° Southwest 426 490 36,000  Level FlightAware ADS-B (CYQI)
18:46 44.9963 -67.2827 224° Southwest 426 490 36,000  Level FlightAware ADS-B (CYSG)
18:46 44.9470 -67.3490 224° Southwest 423 487 36,000  Level FlightAware
18:47 44.9167 -67.3911 224° Southwest 421 484 36,000  Level FlightAware ADS-B (CYSG)
18:47 44.8596 -67.4688 224° Southwest 419 482 36,000  Level FlightAware ADS-B (CYSG)
18:48 44.8160 -67.5277 224° Southwest 415 478 36,000  Level FlightAware ADS-B (CYSG)
18:48 44.7755 -67.5824 224° Southwest 412 474 36,000  Level FlightAware ADS-B (CYSG)
18:49 44.7245 -67.6511 224° Southwest 412 474 36,000  Level FlightAware ADS-B (KBGR)
18:49 44.6774 -67.7146 224° Southwest 412 474 36,000  Level FlightAware ADS-B (CYSG)
18:50 44.6263 -67.7832 224° Southwest 413 475 36,000  Level FlightAware ADS-B (CYQI)
18:51 44.5847 -67.8389 224° Southwest 415 478 36,000  Level FlightAware ADS-B (CYSG)
18:51 44.5366 -67.9031 224° Southwest 417 480 36,000  Level FlightAware ADS-B (CYSG)
18:51 44.5467 -67.8953 223° Southwest 427 491 36,000  Level Boston Center
18:54 44.3811 -68.1092 223° Southwest  Level FlightAware Approximate
18:55 44.3162 -68.1947 223° Southwest  Level FlightAware Approximate
18:56 44.2512 -68.2801 223° Southwest  Level FlightAware Approximate
18:57 44.0640 -68.5270 223° Southwest 425 489 36,000  Level FlightAware
18:57 44.0431 -68.5538 223° Southwest 425 489 36,000  Level FlightAware ADS-B (CYQI)
18:57 44.0094 -68.5977 223° Southwest 427 491 36,000  Level FlightAware ADS-B (KBOS)
18:58 43.9653 -68.6549 223° Southwest 426 490 36,000  Level FlightAware ADS-B (KBOS)
18:58 43.9083 -68.7287 223° Southwest 426 490 36,000  Level FlightAware ADS-B (KBOS)
18:59 43.8646 -68.7853 223° Southwest 427 491 36,000  Level FlightAware ADS-B (KBOS)
19:00 43.8064 -68.8602 223° Southwest 428 493 36,000  Level FlightAware ADS-B (KBOS)
19:00 43.7583 -68.9221 223° Southwest 427 491 36,000  Level FlightAware ADS-B (KBOS)
19:01 43.7085 -68.9858 223° Southwest 427 491 36,000  Level FlightAware ADS-B (KBOS)
19:01 43.6600 -69.0480 223° Southwest 428 493 36,000  Level FlightAware ADS-B (KBOS)
19:04 43.5188 -69.2267 223° Southwest  Level FlightAware Approximate
19:05 43.4531 -69.3095 222° Southwest  Level FlightAware Approximate
19:06 43.3873 -69.3922 222° Southwest  Level FlightAware Approximate
19:07 43.3214 -69.4746 222° Southwest  Level FlightAware Approximate
19:07 43.1833 -69.6500 222° Southwest 430 495 36,000  Level Moncton Center
19:08 43.2554 -69.5570 222° Southwest  Level FlightAware Approximate
19:09 43.1894 -69.6391 222° Southwest  Level FlightAware Approximate
19:10 43.1234 -69.7210 222° Southwest  Level FlightAware Approximate
19:11 43.0573 -69.8028 222° Southwest  Level FlightAware Approximate
19:12 42.9911 -69.8844 222° Southwest  Level FlightAware Approximate
19:13 42.9248 -69.9658 222° Southwest  Level FlightAware Approximate
19:13 42.6850 -70.2670 222° Southwest 421 484 36,000  Level FlightAware
19:13 42.6712 -70.2835 221° Southwest 428 493 36,000  Level FlightAware ADS-B (KBOS)
19:13 42.6228 -70.3423 222° Southwest 428 493 36,000  Level FlightAware ADS-B (KBOS)
19:14 42.5768 -70.3984 222° Southwest 427 491 36,000  Level FlightAware ADS-B (KBOS)
19:14 42.5191 -70.4684 222° Southwest 427 491 36,000  Level FlightAware ADS-B (KBOS)
19:15 42.4746 -70.5222 222° Southwest 426 490 36,000  Level FlightAware ADS-B (KBOS)
19:15 42.4280 -70.5780 221° Southwest 421 484 36,000  Level FlightAware
19:16 42.3948 -70.6188 222° Southwest 427 491 36,000  Level FlightAware ADS-B (KBOS)
19:16 42.3372 -70.6882 222° Southwest 427 491 36,000  Level FlightAware ADS-B (KBOS)
19:17 42.2904 -70.7444 222° Southwest 427 491 36,000  Level FlightAware ADS-B (KBOS)
19:18 42.2200 -70.8288 222° Southwest 427 491 36,000  Level FlightAware ADS-B (KBOS)
19:18 42.1724 -70.8857 222° Southwest 428 493 36,000  Level FlightAware ADS-B (KBOS)
19:19 42.1213 -70.9466 221° Southwest 428 493 36,000  Level FlightAware ADS-B (KBOS)
19:20 42.0616 -71.0177 221° Southwest 429 494 36,000  Level FlightAware ADS-B (KBOS)
19:20 42.0150 -71.0730 221° Southwest 429 494 36,000  Level FlightAware ADS-B (KBOS)
19:21 41.9640 -71.1340 222° Southwest 428 493 36,000  Level FlightAware
19:21 41.9536 -71.1458 220° Southwest 428 493 36,000  Level FlightAware ADS-B (KBOS)
19:22 41.8878 -71.2235 221° Southwest 427 491 36,000  Level FlightAware ADS-B (KBOS)
19:22 41.8414 -71.2781 221° Southwest 427 491 36,000  Level FlightAware ADS-B (KBOS)
19:23 41.7959 -71.3316 221° Southwest 427 491 36,000  Level FlightAware ADS-B (KBOS)
19:23 41.7497 -71.3858 221° Southwest 428 493 36,000  Level FlightAware ADS-B (KBOS)
19:24 41.7074 -71.4354 221° Southwest 428 493 36,000  Level FlightAware ADS-B (KBOS)
19:24 41.6502 -71.5022 221° Southwest 429 494 36,000  Level FlightAware ADS-B (KBOS)
19:25 41.5640 -71.6030 221° Southwest 428 493 36,000  Level FlightAware
19:26 41.5090 -71.6670 221° Southwest 428 493 36,000  Level FlightAware
19:26 41.4600 -71.7230 221° Southwest 428 493 36,000  Level FlightAware
19:27 41.4170 -71.7730 221° Southwest 429 494 36,000  Level FlightAware
19:27 41.3560 -71.8440 221° Southwest 428 493 36,000  Level FlightAware
19:28 41.3040 -71.9040 221° Southwest 428 493 36,000  Level FlightAware
19:29 41.2530 -71.9620 221° Southwest 427 491 36,000  Level FlightAware
19:29 41.1970 -72.0260 221° Southwest 427 491 36,000  Level FlightAware
19:30 41.1480 -72.0830 221° Southwest 428 493 36,000  Level FlightAware
19:30 41.0960 -72.1440 221° Southwest 429 494 36,000  Level FlightAware
19:31 41.0440 -72.2040 221° Southwest 430 495 36,000  Level FlightAware
19:32 40.9870 -72.2710 222° Southwest 431 496 36,000  Level FlightAware
19:32 40.9390 -72.3250 220° Southwest 431 496 36,000  Level FlightAware
19:33 40.8860 -72.3870 221° Southwest 430 495 36,000  Level FlightAware
19:33 40.8360 -72.4450 221° Southwest 429 494 36,000  Level FlightAware
19:34 40.7790 -72.5100 221° Southwest 428 493 36,000  Level FlightAware
19:34 40.7280 -72.5680 221° Southwest 428 493 36,000  Level FlightAware
19:35 40.6740 -72.6290 221° Southwest 428 493 36,000  Level FlightAware
19:36 40.6200 -72.6900 221° Southwest 427 491 36,000  Level FlightAware
19:36 40.5730 -72.7440 221° Southwest 425 489 36,000  Level FlightAware
19:37 40.5180 -72.8070 221° Southwest 424 488 36,000  Level FlightAware
19:37 40.4650 -72.8670 221° Southwest 427 491 36,000  Level FlightAware
19:38 40.4160 -72.9220 221° Southwest 430 495 36,000  Level FlightAware
19:39 40.3620 -72.9820 220° Southwest 433 498 36,000  Level FlightAware
19:39 40.3130 -73.0370 221° Southwest 434 499 36,000  Level FlightAware
19:40 40.2560 -73.1020 221° Southwest 436 502 36,000  Level FlightAware
19:40 40.2080 -73.1550 220° Southwest 436 502 36,000  Level FlightAware
19:41 40.1490 -73.2220 221° Southwest 435 501 36,000  Level FlightAware
19:41 40.0910 -73.2860 220° Southwest 435 501 36,000  Level FlightAware
19:42 40.0380 -73.3450 220° Southwest 436 502 36,000  Level FlightAware
19:43 39.9870 -73.4020 221° Southwest 437 503 36,000  Level FlightAware
19:43 39.9330 -73.4610 220° Southwest 437 503 36,000  Level FlightAware
19:44 39.8750 -73.5260 221° Southwest 437 503 36,000  Level FlightAware
19:44 39.8210 -73.5860 220° Southwest 437 503 36,000  Level FlightAware
19:45 39.7710 -73.6400 220° Southwest 434 499 36,000  Level FlightAware
19:46 39.7170 -73.7000 221° Southwest 434 499 36,000  Level FlightAware
19:46 39.6600 -73.7620 220° Southwest 433 498 36,000  Level FlightAware
19:47 39.6110 -73.8160 220° Southwest 432 497 36,000  Level FlightAware
19:47 39.5510 -73.8810 220° Southwest 432 497 36,000  Level FlightAware
19:48 39.5040 -73.9320 220° Southwest 432 497 36,000  Level FlightAware
19:48 39.4470 -73.9940 220° Southwest 432 497 36,000  Level FlightAware
19:49 39.3980 -74.0470 220° Southwest 433 498 36,000  Level FlightAware
19:50 39.3390 -74.1110 220° Southwest 433 498 36,000  Level FlightAware
19:50 39.2880 -74.1660 220° Southwest 434 499 36,000  Level FlightAware
19:51 39.2350 -74.2240 220° Southwest 435 501 36,000  Level FlightAware
19:51 39.1800 -74.2830 220° Southwest 438 504 36,000  Level FlightAware
19:52 39.1220 -74.3450 220° Southwest 438 504 36,000  Level FlightAware
19:53 39.0680 -74.4020 219° Southwest 438 504 36,000  Level FlightAware
19:53 39.0130 -74.4620 220° Southwest 438 504 36,000  Level FlightAware
19:54 38.9600 -74.5180 219° Southwest 438 504 36,000  Level FlightAware
19:54 38.9190 -74.5610 219° Southwest 438 504 36,000  Level FlightAware
19:55 38.8510 -74.6330 220° Southwest 437 503 36,000  Level FlightAware
19:55 38.8030 -74.6850 220° Southwest 436 502 36,000  Level FlightAware
19:56 38.7360 -74.7560 220° Southwest 436 502 36,000  Level FlightAware
19:56 38.7030 -74.7850 214° Southwest 439 505 36,000  Level FlightAware
19:57 38.6420 -74.8310 211° Southwest 440 506 36,000  Level FlightAware
19:58 38.5770 -74.8800 211° Southwest 440 506 36,000  Level FlightAware
19:58 38.5150 -74.9260 210° Southwest 440 506 36,000  Level FlightAware
19:59 38.4570 -74.9700 211° Southwest 439 505 36,000  Level FlightAware
20:00 38.3860 -75.0230 210° Southwest 440 506 36,000  Level FlightAware
20:00 38.3325 -75.0622 210° Southwest 441 507 36,000  Level Washington Center
20:01 38.2203 -75.1583 214° Southwest 446 513 36,000  Level Washington Center
20:02 38.1119 -75.2303 208° Southwest 446 513 36,000  Level Washington Center
20:03 38.0081 -75.3125 212° Southwest 446 513 36,000  Level Washington Center
20:04 37.9019 -75.3892 210° Southwest 446 513 36,000  Level Washington Center
20:05 37.7936 -75.4708 211° Southwest 446 513 36,000  Level Washington Center
20:06 37.6872 -75.5472 210° Southwest 451 519 36,000  Level Washington Center
20:07 37.5828 -75.6258 211° Southwest 451 519 36,000  Level Washington Center
20:08 37.4744 -75.7017 209° Southwest 451 519 36,000  Level Washington Center
20:09 37.3700 -75.7800 211° Southwest 451 519 36,000  Level Washington Center
20:10 37.2656 -75.8556 210° Southwest 446 513 36,000  Level Washington Center
20:11 37.1589 -75.9333 210° Southwest 446 513 36,000  Level Washington Center
20:12 37.0525 -76.0083 209° Southwest 446 513 36,000  Level Washington Center
20:13 36.9417 -76.0831 208° Southwest 451 519 36,000  Level Washington Center
20:14 36.8347 -76.1603 210° Southwest 456 525 36,000  Level Washington Center
20:15 36.7281 -76.2347 209° Southwest 456 525 36,000  Level Washington Center
20:16 36.6108 -76.3217 211° Southwest 456 525 36,000  Level Washington Center
20:17 36.4978 -76.3825 203° Southwest 442 509 36,000  Level Washington Center
20:18 36.3806 -76.4356 200° South 442 509 36,000  Level Washington Center
20:19 36.2633 -76.4911 201° Southwest 447 514 36,000  Level Washington Center
20:20 36.1461 -76.5436 200° South 447 514 36,000  Level Washington Center
20:26 35.4430 -76.8630 200° South 452 520 36,000  Level FlightAware
20:27 35.3820 -76.8910 201° Southwest 452 520 36,000  Level FlightAware
20:28 35.3340 -76.9120 200° South 450 518 36,000  Level FlightAware
20:28 35.1750 -76.9840 200° South 444 511 36,000  Level FlightAware
20:29 35.1010 -77.0170 200° South 441 507 36,000  Level FlightAware
20:30 35.0390 -77.0450 200° South 439 505 36,000  Level FlightAware
20:30 34.9720 -77.0750 200° South 438 504 36,000  Level FlightAware
20:31 34.9080 -77.1030 200° South 438 504 36,000  Level FlightAware
20:32 34.8640 -77.1230 200° South 438 504 36,000  Level FlightAware
20:32 34.7420 -77.1770 200° South 437 503 36,000  Level FlightAware
20:33 34.7340 -77.1810 202° Southwest 437 503 36,000  Level FlightAware
20:34 34.6610 -77.2130 200° South 437 503 36,000  Level FlightAware
20:34 34.5900 -77.2440 200° South 437 503 36,000  Level FlightAware
20:35 34.5250 -77.2730 200° South 438 504 36,000  Level FlightAware
20:35 34.4640 -77.3000 200° South 438 504 36,000  Level FlightAware
20:36 34.4040 -77.3260 200° South 438 504 36,000  Level FlightAware
20:36 34.3430 -77.3530 200° South 439 505 36,000  Level FlightAware
20:37 34.2520 -77.3930 200° South 438 504 36,000  Level FlightAware
20:38 34.1840 -77.4230 200° South 438 504 36,000  Level FlightAware
20:38 34.1190 -77.4510 200° South 437 503 36,000  Level FlightAware
20:39 34.0550 -77.4790 200° South 437 503 36,000  Level FlightAware
20:39 33.9930 -77.5060 200° South 438 504 36,000  Level FlightAware
20:40 33.9170 -77.5390 200° South 439 505 36,000  Level FlightAware
20:41 33.8490 -77.5690 200° South 439 505 36,000  Level FlightAware
20:41 33.7790 -77.5990 200° South 440 506 36,000  Level FlightAware
20:42 33.7040 -77.6320 200° South 441 507 36,000  Level FlightAware
20:42 33.6560 -77.6520 199° South 442 509 36,000  Level FlightAware
20:43 33.5700 -77.6890 200° South 443 510 36,000  Level FlightAware
20:44 33.5120 -77.7150 200° South 444 511 36,000  Level FlightAware
20:44 33.4450 -77.7430 199° South 446 513 36,000  Level FlightAware
20:45 33.3940 -77.7650 200° South 446 513 36,000  Level FlightAware
20:45 33.6380 -77.6600 20° North 36,000  Level FlightAware
20:46 33.2520 -77.8260 200° South 447 514 36,000  Level FlightAware
20:46 33.1970 -77.8490 199° South 446 513 36,000  Level FlightAware
20:47 33.0310 -77.9190 199° South 447 514 36,000  Level FlightAware
20:48 32.9690 -77.9440 199° South 447 514 36,000  Level FlightAware
20:48 32.9090 -77.9690 199° South 447 514 36,000  Level FlightAware
20:49 33.0740 -77.9010 19° North 36,000  Level FlightAware
20:49 32.7650 -78.0320 200° South 453 521 36,000  Level FlightAware
20:50 32.6980 -78.0600 199° South 453 521 36,000  Level FlightAware
20:51 32.6220 -78.0930 200° South 453 521 36,000  Level FlightAware
20:51 32.5270 -78.1330 200° South 455 524 36,000  Level FlightAware
20:52 32.4540 -78.1630 199° South 456 525 36,000  Level FlightAware
20:53 32.3840 -78.1920 199° South 458 527 36,000  Level FlightAware
20:53 32.3240 -78.2180 200° South 459 528 36,000  Level FlightAware
20:54 32.2560 -78.2450 199° South 459 528 36,000  Level FlightAware
20:54 32.1770 -78.2790 200° South 459 528 36,000  Level FlightAware
20:55 32.0980 -78.3110 199° South 459 528 36,000  Level FlightAware
20:56 32.0360 -78.3360 199° South 459 528 36,000  Level FlightAware
20:56 31.9750 -78.3610 199° South 459 528 36,000  Level FlightAware
20:57 32.1410 -78.2940 19° North 36,000  Level FlightAware
20:59 31.6350 -78.5030 199° South 467 537 36,000  Level FlightAware
20:59 31.5480 -78.5390 199° South 467 537 36,000  Level FlightAware
21:00 31.4850 -78.5640 199° South 467 537 36,000  Level FlightAware
21:01 31.4230 -78.5890 199° South 467 537 36,000  Level FlightAware
21:01 31.3580 -78.6150 199° South 467 537 36,000  Level FlightAware
21:02 31.2960 -78.6400 199° South 467 537 36,000  Level FlightAware
21:03 31.2330 -78.6650 199° South 467 537 36,000  Level FlightAware
21:03 31.1710 -78.6910 200° South 467 537 36,000  Level FlightAware
21:04 31.1080 -78.7160 199° South 467 537 36,000  Level FlightAware
21:04 31.0460 -78.7410 199° South 467 537 36,000  Level FlightAware
21:05 30.9830 -78.7660 199° South 467 537 36,000  Level FlightAware
21:06 30.7720 -78.8550 200° South 468 539 36,000  Level FlightAware
21:06 30.7090 -78.8800 199° South 468 539 36,000  Level FlightAware
21:07 30.6450 -78.9050 199° South 468 539 36,000  Level FlightAware
21:08 30.5820 -78.9310 200° South 468 539 36,000  Level FlightAware
21:08 30.5190 -78.9560 199° South 468 539 36,000  Level FlightAware
21:09 30.4550 -78.9810 199° South 468 539 36,000  Level FlightAware
21:09 30.3920 -79.0060 199° South 468 539 36,000  Level FlightAware
21:10 30.3300 -79.0310 199° South 468 539 36,000  Level FlightAware
21:11 30.2480 -79.0640 199° South 468 539 36,000  Level FlightAware
21:11 30.1830 -79.0900 199° South 468 539 36,000  Level FlightAware
21:12 30.1230 -79.1140 199° South 468 539 36,000  Level FlightAware
21:13 30.0600 -79.1390 199° South 468 539 36,000  Level FlightAware
21:13 29.9970 -79.1640 199° South 468 539 36,000  Level FlightAware
21:14 29.9350 -79.1890 199° South 468 539 36,000  Level FlightAware
21:14 29.8680 -79.2150 199° South 468 539 36,000  Level FlightAware
21:15 29.8060 -79.2400 199° South 468 539 36,000  Level FlightAware
21:21 28.8890 -79.5960 199° South 470 541 36,000  Level FlightAware
21:22 28.8030 -79.6280 198° South 470 541 36,000  Level FlightAware
21:22 28.7675 -79.6411 198° South 473 544 36,000  Level FlightAware ADS-B (KMCO)
21:23 28.6540 -79.6830 198° South 473 544 36,000  Level FlightAware
21:23 28.6173 -79.6970 199° South 473 544 36,000  Level FlightAware ADS-B (KMCO)
21:24 28.5580 -79.7190 198° South 471 542 36,000  Level FlightAware
21:24 28.5340 -79.7279 198° South 472 543 36,000  Level FlightAware ADS-B (KMCO)
21:25 28.4367 -79.7640 198° South 471 542 36,000  Level FlightAware ADS-B (KMCO)
21:25 28.3726 -79.7877 198° South 471 542 36,000  Level FlightAware ADS-B (KMCO)
21:26 28.3103 -79.8108 198° South 472 543 36,000  Level FlightAware ADS-B (KMCO)
21:26 28.2459 -79.8345 198° South 473 544 36,000  Level FlightAware ADS-B (KMCO)
21:27 28.1971 -79.8525 198° South 473 544 36,000  Level FlightAware ADS-B (KMCO)
21:27 28.1196 -79.8810 198° South 474 545 36,000  Level FlightAware ADS-B (KMCO)
21:28 28.0560 -79.9044 198° South 474 545 36,000  Level FlightAware ADS-B (KMCO)
21:28 27.9773 -79.9333 198° South 473 544 36,000  Level FlightAware ADS-B (KMCO)
21:29 27.9125 -79.9571 198° South 472 543 36,000  Level FlightAware ADS-B (KMCO)
21:30 27.8266 -79.9884 198° South 470 541 36,000  Level FlightAware ADS-B (KMCO)
21:30 27.7650 -80.0110 198° South 469 540 36,000  Level FlightAware ADS-B (KMCO)
21:31 27.6842 -80.0405 198° South 470 541 36,000  Level FlightAware ADS-B (KMCO)
21:31 27.5963 -80.0726 198° South 470 541 36,000  Level FlightAware ADS-B (KMCO)
21:32 27.5204 -80.1002 198° South 470 541 36,000  Level FlightAware ADS-B (KMCO)
21:32 27.5125 -80.1044 197° South 477 549 36,000  Level Miami Center
21:33 27.4509 -80.1255 198° South 472 543 36,000  Level FlightAware ADS-B (KMCO)
21:33 27.3760 -80.1520 197° South 472 543 36,000  Level FlightAware
21:33 27.3471 -80.1630 199° South 474 545 36,000  Level FlightAware ADS-B (KMCO)
21:34 27.2832 -80.1861 198° South 477 549 36,000  Level FlightAware ADS-B (KMCO)
21:34 27.2189 -80.2095 198° South 474 545 36,000  Level FlightAware ADS-B (KMCO)
21:37 27.0462 -80.2715 198° South  Level FlightAware Approximate
21:38 26.9612 -80.3018 197° South  Level FlightAware Approximate
21:38 26.7830 -80.3660 197° South 474 545 36,000  Level FlightAware
21:38 26.7150 -80.3910 198° South 475 547 36,000  Level FlightAware
21:39 26.6310 -80.4210 198° South 475 547 36,000  Level FlightAware
21:40 26.5620 -80.4450 197° South 476 548 36,000  Level FlightAware
21:40 26.4820 -80.4740 198° South 476 548 36,000  Level FlightAware
21:41 26.4080 -80.5000 197° South 475 547 36,000  Level FlightAware
21:41 26.3813 -80.5099 198° South 475 547 36,000  Level FlightAware ADS-B (KMCO)
21:42 26.2560 -80.5540 198° South 472 543 36,000  Level FlightAware
21:43 26.1820 -80.5810 198° South 472 543 36,000  Level FlightAware
21:43 26.1000 -80.6100 198° South 474 545 36,000  Level FlightAware
21:44 26.0260 -80.6360 198° South 475 547 36,000  Level FlightAware
21:44 25.9570 -80.6700 204° Southwest 471 542 36,000  Level FlightAware
21:45 25.9020 -80.7100 213° Southwest 464 534 36,000  Level FlightAware
21:46 25.8320 -80.7600 213° Southwest 465 535 36,000  Level FlightAware
21:46 25.7670 -80.8060 213° Southwest 464 534 36,000  Level FlightAware
21:47 25.6940 -80.8580 213° Southwest 465 535 36,000  Level FlightAware
21:47 25.6290 -80.9050 213° Southwest 465 535 36,000  Level FlightAware
21:48 25.5750 -80.9430 212° Southwest 465 535 36,000  Level FlightAware
21:49 25.5090 -80.9890 212° Southwest 466 536 36,000  Level FlightAware
21:49 25.4370 -81.0410 213° Southwest 466 536 36,000  Level FlightAware
21:50 25.3800 -81.0810 212° Southwest 466 536 36,000  Level FlightAware
21:50 25.3180 -81.1250 213° Southwest 466 536 36,000  Level FlightAware
21:51 25.2510 -81.1720 212° Southwest 465 535 36,000  Level FlightAware
21:52 25.1790 -81.2230 213° Southwest 463 533 36,000  Level FlightAware
21:52 25.1230 -81.2620 212° Southwest 463 533 36,000  Level FlightAware
21:53 25.0590 -81.3070 212° Southwest 465 535 36,000 -300 Level FlightAware
21:53 24.9950 -81.3520 213° Southwest 461 531 35,700 -720 Descending FlightAware
21:54 24.9230 -81.4020 212° Southwest 455 524 35,100 -1,080 Descending FlightAware
21:54 24.8700 -81.4400 213° Southwest 456 525 34,500 -1,140 Descending FlightAware
21:55 24.7990 -81.4900 213° Southwest 460 529 33,800 -1,200 Descending FlightAware
21:56 24.7440 -81.5280 212° Southwest 446 513 33,100 -1,560 Descending FlightAware
21:56 24.6830 -81.5710 213° Southwest 439 505 32,100 -1,800 Descending FlightAware
21:57 24.6220 -81.6130 212° Southwest 440 506 31,000 -1,920 Descending FlightAware
21:57 24.5620 -81.6550 212° Southwest 436 502 29,900 -1,800 Descending FlightAware
21:58 24.5040 -81.6950 212° Southwest 424 488 28,900 -1,680 Descending FlightAware
22:01 24.2908 -81.7966 206° Southwest  Level Estimated
22:02 24.2025 -81.8078 187° South  Level FlightAware Approximate
22:03 24.1143 -81.8189 187° South  Level FlightAware Approximate
22:04 24.0260 -81.8301 187° South  Level FlightAware Approximate
22:04 23.9290 -82.0920 187° South 378 435 19,000  Level FlightAware
22:05 23.8840 -82.1230 212° Southwest 378 435 19,000  Level FlightAware
22:05 23.8390 -82.1540 212° Southwest 378 435 19,000 -3,060 Level FlightAware
22:06 23.7630 -82.2060 212° Southwest 894 1029 15,200 -5,880 Descending FlightAware
22:10 23.4492 -82.2886 194° South  Level Estimated
22:11 23.3629 -82.3113 194° South  Level Estimated
22:12 23.2765 -82.3340 194° South  Level Estimated
22:13 23.1901 -82.3566 194° South  Level Estimated
22:14 23.1038 -82.3792 194° South  Level Estimated
22:15 23.0174 -82.4017 194° South  Level Estimated
22:16 22.9891 -82.4091 194° South  Level Estimated
22:17 22.9891 -82.4091 51° Northeast  Level Estimated
22:18 22.9891 -82.4091 51° Northeast  Level Estimated
22:19 22.9891 -82.4091 51° Northeast  Level Estimated
22:20 22.9891 -82.4091 51° Northeast  Level Estimated
22:21 22.9891 -82.4091 51° Northeast  Level Estimated
22:22 22.9891 -82.4091 51° Northeast  Level Estimated
22:23 22.9891 -82.4091 51° Northeast  Level Estimated
22:24 22.9891 -82.4091 51° Northeast  Level Estimated
22:25 22.9891 -82.4091 51° Northeast  Level Estimated
22:26 22.9891 -82.4091 51° Northeast  Level Estimated
22:27 22.9891 -82.4091 51° Northeast  Level Estimated
22:28 22.9891 -82.4091 51° Northeast  Level Estimated
22:29 22.9891 -82.4091 51° Northeast  Level Estimated
22:30 22.9891 -82.4091 51° Northeast  Level Estimated
22:31 22.9891 -82.4091 51° Northeast  Level Estimated
22:32 22.9891 -82.4091 51° Northeast  Level Estimated
22:33 22.9891 -82.4091 51° Northeast  Level Estimated
22:34 22.9891 -82.4091 51° Northeast  Level Estimated
22:35 22.9891 -82.4091 51° Northeast  Level Estimated
22:36 22.9891 -82.4091 51° Northeast  Level Estimated
22:37 22.9891 -82.4091 51° Northeast  Level Estimated